sensor_id;sensor_type;location;lat;lon;timestamp;pressure;altitude;pressure_sealevel;temperature;humidity
58739;BME280;44512;53.046;18.604;2023-06-10T00:05:20;101716.67;;;23.72;39.68
58739;BME280;44512;53.046;18.604;2023-06-10T00:15:49;101730.34;;;23.57;39.20
58739;BME280;44512;53.046;18.604;2023-06-10T00:26:18;101728.59;;;23.46;38.65
58739;BME280;44512;53.046;18.604;2023-06-10T00:36:45;101730.69;;;23.33;38.29
58739;BME280;44512;53.046;18.604;2023-06-10T00:47:14;101726.21;;;23.27;38.08
58739;BME280;44512;53.046;18.604;2023-06-10T00:57:42;101735.00;;;23.24;37.64
58739;BME280;44512;53.046;18.604;2023-06-10T01:18:40;101737.77;;;23.24;37.18
58739;BME280;44512;53.046;18.604;2023-06-10T01:39:36;101767.22;;;23.13;36.97
58739;BME280;44512;53.046;18.604;2023-06-10T01:50:05;101775.12;;;23.05;37.19
58739;BME280;44512;53.046;18.604;2023-06-10T02:00:32;101785.53;;;22.98;37.26
58739;BME280;44512;53.046;18.604;2023-06-10T02:11:00;101788.50;;;22.91;37.36
58739;BME280;44512;53.046;18.604;2023-06-10T02:21:29;101790.00;;;22.82;37.57
58739;BME280;44512;53.046;18.604;2023-06-10T02:31:58;101782.35;;;22.67;37.83
58739;BME280;44512;53.046;18.604;2023-06-10T02:42:25;101809.11;;;22.67;38.18
58739;BME280;44512;53.046;18.604;2023-06-10T02:52:54;101796.61;;;22.59;38.49
58739;BME280;44512;53.046;18.604;2023-06-10T03:03:22;101807.56;;;22.54;38.80
58739;BME280;44512;53.046;18.604;2023-06-10T03:13:51;101830.06;;;22.46;39.17
58739;BME280;44512;53.046;18.604;2023-06-10T03:24:19;101829.41;;;22.39;39.55
58739;BME280;44512;53.046;18.604;2023-06-10T03:34:48;101846.37;;;22.30;39.94
58739;BME280;44512;53.046;18.604;2023-06-10T03:45:16;101850.14;;;22.24;40.28
58739;BME280;44512;53.046;18.604;2023-06-10T03:55:44;101868.53;;;22.19;40.57
58739;BME280;44512;53.046;18.604;2023-06-10T04:06:12;101888.84;;;22.13;40.86
58739;BME280;44512;53.046;18.604;2023-06-10T04:16:41;101880.67;;;22.06;41.14
58739;BME280;44512;53.046;18.604;2023-06-10T04:27:09;101894.45;;;22.06;41.27
58739;BME280;44512;53.046;18.604;2023-06-10T04:37:38;101897.21;;;22.06;41.41
58739;BME280;44512;53.046;18.604;2023-06-10T04:48:06;101909.90;;;22.07;41.48
58739;BME280;44512;53.046;18.604;2023-06-10T04:58:34;101932.83;;;22.07;41.63
58739;BME280;44512;53.046;18.604;2023-06-10T05:09:02;101936.64;;;22.06;42.08
58739;BME280;44512;53.046;18.604;2023-06-10T05:19:31;101932.48;;;22.04;42.51
58739;BME280;44512;53.046;18.604;2023-06-10T05:29:59;101937.98;;;22.04;42.67
58739;BME280;44512;53.046;18.604;2023-06-10T05:40:27;101938.47;;;22.01;42.77
58739;BME280;44512;53.046;18.604;2023-06-10T05:50:56;101944.59;;;22.03;42.74
58739;BME280;44512;53.046;18.604;2023-06-10T06:01:24;101940.00;;;22.08;42.64
58739;BME280;44512;53.046;18.604;2023-06-10T06:11:53;101939.88;;;22.15;42.06
58739;BME280;44512;53.046;18.604;2023-06-10T06:22:21;101949.07;;;22.21;41.77
58739;BME280;44512;53.046;18.604;2023-06-10T06:32:49;101945.08;;;22.28;41.70
58739;BME280;44512;53.046;18.604;2023-06-10T06:43:18;101957.12;;;22.39;41.61
58739;BME280;44512;53.046;18.604;2023-06-10T06:53:46;101969.41;;;22.48;41.25
58739;BME280;44512;53.046;18.604;2023-06-10T07:04:15;101973.20;;;22.59;40.72
58739;BME280;44512;53.046;18.604;2023-06-10T07:14:43;101981.04;;;22.67;40.67
58739;BME280;44512;53.046;18.604;2023-06-10T07:25:11;101974.84;;;22.77;41.18
58739;BME280;44512;53.046;18.604;2023-06-10T07:35:39;101973.95;;;22.88;40.67
58739;BME280;44512;53.046;18.604;2023-06-10T07:46:08;101977.13;;;22.97;40.28
58739;BME280;44512;53.046;18.604;2023-06-10T07:56:36;101981.63;;;23.03;39.92
58739;BME280;44512;53.046;18.604;2023-06-10T08:07:05;101984.21;;;23.09;39.73
58739;BME280;44512;53.046;18.604;2023-06-10T08:17:33;101989.05;;;23.19;39.37
58739;BME280;44512;53.046;18.604;2023-06-10T08:28:01;101998.31;;;23.30;38.95
58739;BME280;44512;53.046;18.604;2023-06-10T08:38:29;102004.81;;;23.40;38.20
58739;BME280;44512;53.046;18.604;2023-06-10T08:49:02;101998.33;;;23.52;38.49
58739;BME280;44512;53.046;18.604;2023-06-10T08:59:26;102003.98;;;23.62;38.18
58739;BME280;44512;53.046;18.604;2023-06-10T09:09:55;102012.71;;;23.71;37.28
58739;BME280;44512;53.046;18.604;2023-06-10T09:20:23;102008.91;;;23.77;36.82
58739;BME280;44512;53.046;18.604;2023-06-10T09:41:20;102003.27;;;23.88;35.94
58739;BME280;44512;53.046;18.604;2023-06-10T09:51:53;101997.26;;;23.97;34.90
58739;BME280;44512;53.046;18.604;2023-06-10T10:02:17;101994.28;;;24.03;34.28
58739;BME280;44512;53.046;18.604;2023-06-10T10:12:46;102007.66;;;24.11;33.39
58739;BME280;44512;53.046;18.604;2023-06-10T10:23:16;101998.07;;;24.19;32.78
58739;BME280;44512;53.046;18.604;2023-06-10T10:33:49;102013.07;;;24.28;32.81
58739;BME280;44512;53.046;18.604;2023-06-10T10:44:10;101997.15;;;24.35;31.98
58739;BME280;44512;53.046;18.604;2023-06-10T10:54:43;102001.63;;;24.41;31.59
58739;BME280;44512;53.046;18.604;2023-06-10T11:05:08;102001.14;;;24.50;30.22
58739;BME280;44512;53.046;18.604;2023-06-10T11:15:39;102004.55;;;24.57;29.15
58739;BME280;44512;53.046;18.604;2023-06-10T11:36:33;101998.46;;;24.60;25.75
58739;BME280;44512;53.046;18.604;2023-06-10T11:47:00;101993.52;;;24.62;25.48
58739;BME280;44512;53.046;18.604;2023-06-10T11:57:28;101976.95;;;24.67;25.81
58739;BME280;44512;53.046;18.604;2023-06-10T12:18:25;101980.67;;;24.83;23.74
58739;BME280;44512;53.046;18.604;2023-06-10T12:28:53;101979.91;;;24.92;23.82
58739;BME280;44512;53.046;18.604;2023-06-10T12:39:21;101973.62;;;25.02;23.72
58739;BME280;44512;53.046;18.604;2023-06-10T12:49:50;101977.30;;;25.13;23.20
58739;BME280;44512;53.046;18.604;2023-06-10T13:00:18;101977.36;;;25.23;22.95
58739;BME280;44512;53.046;18.604;2023-06-10T13:10:46;101961.34;;;25.35;23.37
58739;BME280;44512;53.046;18.604;2023-06-10T13:21:15;101951.69;;;25.48;23.93
58739;BME280;44512;53.046;18.604;2023-06-10T13:31:43;101944.27;;;25.59;24.16
58739;BME280;44512;53.046;18.604;2023-06-10T13:42:11;101939.86;;;25.73;24.77
58739;BME280;44512;53.046;18.604;2023-06-10T13:52:40;101946.59;;;25.87;24.00
58739;BME280;44512;53.046;18.604;2023-06-10T14:03:08;101938.31;;;26.03;24.05
58739;BME280;44512;53.046;18.604;2023-06-10T14:13:36;101938.05;;;26.19;23.97
58739;BME280;44512;53.046;18.604;2023-06-10T14:24:05;101942.77;;;26.39;23.94
58739;BME280;44512;53.046;18.604;2023-06-10T14:34:33;101916.16;;;26.59;23.21
58739;BME280;44512;53.046;18.604;2023-06-10T14:50:19;101918.59;;;26.91;23.28
58739;BME280;44512;53.046;18.604;2023-06-10T15:00:48;101925.23;;;27.15;22.80
58739;BME280;44512;53.046;18.604;2023-06-10T15:11:16;101939.52;;;27.53;22.69
58739;BME280;44512;53.046;18.604;2023-06-10T15:21:44;101942.09;;;27.99;21.83
58739;BME280;44512;53.046;18.604;2023-06-10T15:32:13;101931.46;;;28.45;22.39
58739;BME280;44512;53.046;18.604;2023-06-10T15:42:41;101934.44;;;28.83;22.50
58739;BME280;44512;53.046;18.604;2023-06-10T15:53:09;101947.42;;;28.98;21.07
58739;BME280;44512;53.046;18.604;2023-06-10T16:03:38;101936.86;;;29.19;21.08
58739;BME280;44512;53.046;18.604;2023-06-10T16:14:06;101940.53;;;29.38;20.33
58739;BME280;44512;53.046;18.604;2023-06-10T16:24:34;101947.02;;;29.57;19.83
58739;BME280;44512;53.046;18.604;2023-06-10T16:35:03;101954.05;;;29.74;19.27
58739;BME280;44512;53.046;18.604;2023-06-10T16:45:31;101949.15;;;29.84;19.17
58739;BME280;44512;53.046;18.604;2023-06-10T16:55:59;101954.59;;;29.95;19.07
58739;BME280;44512;53.046;18.604;2023-06-10T17:06:28;101968.16;;;30.01;18.83
58739;BME280;44512;53.046;18.604;2023-06-10T17:16:56;101970.71;;;29.98;18.61
58739;BME280;44512;53.046;18.604;2023-06-10T17:27:24;101976.60;;;29.77;18.52
58739;BME280;44512;53.046;18.604;2023-06-10T17:37:52;101984.49;;;29.46;18.75
58739;BME280;44512;53.046;18.604;2023-06-10T17:48:21;101985.76;;;29.11;18.83
58739;BME280;44512;53.046;18.604;2023-06-10T17:58:49;101991.34;;;28.77;19.10
58739;BME280;44512;53.046;18.604;2023-06-10T18:09:17;101998.59;;;28.44;19.55
58739;BME280;44512;53.046;18.604;2023-06-10T18:19:46;102012.40;;;28.15;20.00
58739;BME280;44512;53.046;18.604;2023-06-10T18:30:14;102017.57;;;27.87;20.49
58739;BME280;44512;53.046;18.604;2023-06-10T18:40:42;102041.85;;;27.61;20.97
58739;BME280;44512;53.046;18.604;2023-06-10T18:51:11;102043.87;;;27.35;21.26
58739;BME280;44512;53.046;18.604;2023-06-10T19:01:39;102055.03;;;27.10;21.38
58739;BME280;44512;53.046;18.604;2023-06-10T19:12:08;102076.66;;;26.87;21.78
58739;BME280;44512;53.046;18.604;2023-06-10T19:22:36;102082.19;;;26.62;22.24
58739;BME280;44512;53.046;18.604;2023-06-10T19:33:04;102084.63;;;26.38;22.55
58739;BME280;44512;53.046;18.604;2023-06-10T19:43:32;102096.48;;;26.13;22.89
58739;BME280;44512;53.046;18.604;2023-06-10T19:54:01;102106.08;;;25.85;23.23
58739;BME280;44512;53.046;18.604;2023-06-10T20:04:29;102107.27;;;25.57;23.57
58739;BME280;44512;53.046;18.604;2023-06-10T20:14:57;102123.70;;;25.31;23.91
58739;BME280;44512;53.046;18.604;2023-06-10T20:25:26;102118.79;;;25.06;24.31
58739;BME280;44512;53.046;18.604;2023-06-10T20:35:54;102126.33;;;24.84;24.67
58739;BME280;44512;53.046;18.604;2023-06-10T20:46:22;102128.33;;;24.61;25.04
58739;BME280;44512;53.046;18.604;2023-06-10T20:56:51;102125.57;;;24.39;25.44
58739;BME280;44512;53.046;18.604;2023-06-10T21:07:20;102133.86;;;24.17;25.87
58739;BME280;44512;53.046;18.604;2023-06-10T21:17:47;102141.65;;;23.99;26.21
58739;BME280;44512;53.046;18.604;2023-06-10T21:28:17;102159.09;;;23.82;26.58
58739;BME280;44512;53.046;18.604;2023-06-10T21:38:44;102163.83;;;23.65;26.85
58739;BME280;44512;53.046;18.604;2023-06-10T21:49:12;102167.98;;;23.51;27.18
58739;BME280;44512;53.046;18.604;2023-06-10T21:59:41;102164.15;;;23.35;27.48
58739;BME280;44512;53.046;18.604;2023-06-10T22:10:09;102165.81;;;23.19;27.72
58739;BME280;44512;53.046;18.604;2023-06-10T22:20:37;102164.45;;;23.05;27.95
58739;BME280;44512;53.046;18.604;2023-06-10T22:31:06;102167.80;;;22.90;28.15
58739;BME280;44512;53.046;18.604;2023-06-10T22:41:34;102174.41;;;22.77;28.34
58739;BME280;44512;53.046;18.604;2023-06-10T22:52:03;102172.20;;;22.62;28.48
58739;BME280;44512;53.046;18.604;2023-06-10T23:02:31;102167.20;;;22.48;28.65
58739;BME280;44512;53.046;18.604;2023-06-10T23:12:59;102171.83;;;22.30;28.83
58739;BME280;44512;53.046;18.604;2023-06-10T23:23:27;102165.98;;;22.15;28.95
58739;BME280;44512;53.046;18.604;2023-06-10T23:33:56;102162.85;;;22.00;29.04
58739;BME280;44512;53.046;18.604;2023-06-10T23:44:24;102165.89;;;21.87;29.12
58739;BME280;44512;53.046;18.604;2023-06-10T23:54:52;102171.64;;;21.73;29.14
